Time;durP1;ratioP1;P1;durP2;ratioP2;P2;SDS_P1;SDS_P2;PMS_P1;PMS_P2;Temp;Humidity;BMP_temperature;BMP_pressure;BME280_temperature;BME280_humidity;BME280_pressure;Samples;Min_cycle;Max_cycle;Signal;HPM_P1;HPM_P2
2022/02/21 00:02:01;;;;;;;4.27;1.47;;;6.30;99.90;;;;;;5033565;28;20285;-79
2022/02/21 00:04:27;;;;;;;4.00;1.40;;;6.20;99.90;;;;;;5033618;28;20258;-78
2022/02/21 00:06:53;;;;;;;4.00;1.47;;;6.20;99.90;;;;;;5033290;28;20442;-78
2022/02/21 00:09:19;;;;;;;8.53;2.50;;;6.30;99.90;;;;;;5033757;28;20205;-78
2022/02/21 00:11:44;;;;;;;3.63;1.30;;;6.30;99.90;;;;;;5033311;28;20277;-78
2022/02/21 00:14:10;;;;;;;8.00;1.70;;;6.30;99.90;;;;;;5033694;28;20515;-78
2022/02/21 00:16:36;;;;;;;8.33;1.30;;;6.30;99.90;;;;;;5032831;28;20286;-79
2022/02/21 00:19:02;;;;;;;4.83;1.80;;;6.30;99.90;;;;;;5033341;28;20563;-78
2022/02/21 00:21:29;;;;;;;6.13;1.20;;;6.30;99.90;;;;;;5032775;28;20649;-78
2022/02/21 00:23:55;;;;;;;6.30;2.00;;;6.30;99.90;;;;;;5033281;28;20555;-78
2022/02/21 00:26:21;;;;;;;3.97;1.37;;;6.30;99.90;;;;;;5032636;28;20441;-78
2022/02/21 00:28:48;;;;;;;5.00;2.40;;;6.30;99.90;;;;;;5032965;28;20974;-78
2022/02/21 00:31:14;;;;;;;4.10;1.50;;;6.40;99.90;;;;;;5032966;28;20434;-78
2022/02/21 00:33:41;;;;;;;2.40;1.20;;;6.40;99.90;;;;;;5032913;28;20857;-78
2022/02/21 00:36:06;;;;;;;3.30;1.30;;;6.40;99.90;;;;;;5032826;28;20450;-78
2022/02/21 00:38:33;;;;;;;5.80;1.63;;;6.40;99.90;;;;;;5032863;28;20919;-78
2022/02/21 00:40:59;;;;;;;2.87;1.23;;;6.40;99.90;;;;;;5032816;28;20508;-78
2022/02/21 00:43:25;;;;;;;5.70;1.50;;;6.40;99.90;;;;;;5032724;28;20480;-78
2022/02/21 00:45:51;;;;;;;4.17;1.77;;;6.40;99.90;;;;;;5032719;28;20533;-78
2022/02/21 00:48:17;;;;;;;6.37;1.83;;;6.50;99.90;;;;;;5033135;28;20191;-78
2022/02/21 00:50:43;;;;;;;4.43;1.60;;;6.50;99.90;;;;;;5032795;28;20807;-79
2022/02/21 00:53:09;;;;;;;4.80;2.17;;;6.60;99.90;;;;;;5032778;28;20429;-78
2022/02/21 00:55:35;;;;;;;4.53;2.00;;;6.70;99.90;;;;;;5032578;28;20426;-78
2022/02/21 00:58:05;;;;;;;7.77;2.10;;;6.80;99.90;;;;;;5032756;28;20219;-78
2022/02/21 01:00:33;;;;;;;5.30;1.53;;;6.80;99.90;;;;;;5033174;28;20811;-78
2022/02/21 01:02:59;;;;;;;5.07;1.37;;;6.80;99.90;;;;;;5032582;28;20498;-77
2022/02/21 01:05:25;;;;;;;3.37;1.30;;;6.80;99.90;;;;;;5033046;28;20996;-77
2022/02/21 01:07:51;;;;;;;4.43;1.53;;;6.10;99.90;;;;;;5032468;28;20428;-77
2022/02/21 01:10:17;;;;;;;5.47;1.63;;;5.40;99.90;;;;;;5032669;28;20182;-78
2022/02/21 01:12:43;;;;;;;4.70;1.40;;;5.30;99.90;;;;;;5032595;28;20474;-78
2022/02/21 01:15:10;;;;;;;7.60;1.23;;;5.20;99.90;;;;;;5032455;28;20460;-78
2022/02/21 01:17:36;;;;;;;8.17;1.50;;;5.10;99.90;;;;;;5032508;28;20449;-78
2022/02/21 01:20:06;;;;;;;4.83;1.20;;;5.00;99.90;;;;;;5032644;28;20426;-78
2022/02/21 01:22:32;;;;;;;2.50;1.00;;;5.00;99.90;;;;;;5032867;28;20423;-78
2022/02/21 01:24:58;;;;;;;5.50;1.33;;;4.90;99.90;;;;;;5035954;28;20476;-78
2022/02/21 01:27:24;;;;;;;3.93;1.30;;;4.90;99.90;;;;;;5036759;28;20443;-79
2022/02/21 01:29:50;;;;;;;2.47;1.00;;;5.00;99.90;;;;;;5037438;28;20260;-79
2022/02/21 01:32:16;;;;;;;6.00;1.50;;;5.00;99.90;;;;;;5036757;28;20267;-78
2022/02/21 01:34:41;;;;;;;3.80;1.10;;;5.00;99.90;;;;;;5036185;28;20189;-79
2022/02/21 01:37:07;;;;;;;2.80;1.07;;;5.10;99.90;;;;;;5036680;28;20209;-78
2022/02/21 01:39:33;;;;;;;4.70;1.20;;;5.20;99.90;;;;;;5037061;28;20186;-79
2022/02/21 01:42:03;;;;;;;8.90;1.30;;;5.20;99.90;;;;;;5036754;28;20181;-78
2022/02/21 01:44:50;;;;;;;2.93;1.27;;;5.20;99.90;;;;;;5036622;28;20469;-79
2022/02/21 01:47:19;;;;;;;5.97;1.27;;;5.30;99.90;;;;;;5037087;28;20497;-79
2022/02/21 01:49:45;;;;;;;3.20;1.00;;;5.30;99.90;;;;;;5036583;28;20873;-79
2022/02/21 01:52:12;;;;;;;4.10;1.43;;;5.40;99.90;;;;;;5036807;28;20523;-78
2022/02/21 01:54:38;;;;;;;3.67;1.50;;;5.30;99.90;;;;;;5036529;28;20423;-78
2022/02/21 01:57:05;;;;;;;3.90;1.43;;;5.40;99.90;;;;;;5036099;28;20451;-79
2022/02/21 01:59:36;;;;;;;3.67;1.37;;;5.30;99.90;;;;;;5037032;28;20496;-79
2022/02/21 02:02:02;;;;;;;5.10;1.50;;;5.40;99.90;;;;;;5036250;28;20535;-79
2022/02/21 02:04:28;;;;;;;3.30;1.57;;;5.50;99.90;;;;;;5035839;28;20467;-79
2022/02/21 02:06:54;;;;;;;2.47;1.37;;;5.40;99.90;;;;;;5035763;28;20442;-79
2022/02/21 02:09:20;;;;;;;9.87;1.80;;;5.40;99.90;;;;;;5036231;28;20800;-78
2022/02/21 02:11:46;;;;;;;4.30;1.90;;;5.40;99.90;;;;;;5055994;23;20589;-83
2022/02/21 02:14:32;;;;;;;6.33;1.80;;;5.30;99.90;;;;;;5031456;28;20526;-83
2022/02/21 02:17:16;;;;;;;9.70;2.07;;;5.30;99.90;;;;;;5033807;28;20185;-83
2022/02/21 02:19:44;;;;;;;9.30;1.73;;;5.40;99.90;;;;;;5034458;28;20906;-83
2022/02/21 02:22:18;;;;;;;11.27;2.50;;;5.40;99.90;;;;;;5025465;28;20446;-83
2022/02/21 02:24:47;;;;;;;3.60;1.60;;;5.40;99.90;;;;;;5012862;28;20457;-83
2022/02/21 02:27:13;;;;;;;3.70;1.40;;;5.40;99.90;;;;;;5012724;28;20459;-83
2022/02/21 02:29:40;;;;;;;13.53;2.10;;;5.40;99.90;;;;;;5014011;28;20421;-82
2022/02/21 02:32:07;;;;;;;3.93;1.40;;;5.30;99.90;;;;;;5012681;28;20432;-83
2022/02/21 02:34:34;;;;;;;4.83;1.60;;;5.20;99.90;;;;;;5012337;28;20511;-83
2022/02/21 02:36:59;;;;;;;7.33;1.73;;;5.20;99.90;;;;;;5012357;28;20503;-83
2022/02/21 02:39:26;;;;;;;4.43;2.07;;;5.20;99.90;;;;;;5012602;28;20990;-82
2022/02/21 02:41:52;;;;;;;2.73;1.20;;;5.30;99.90;;;;;;5012480;28;20193;-82
2022/02/21 02:44:18;;;;;;;4.23;1.33;;;5.30;99.90;;;;;;5013807;28;20462;-83
2022/02/21 02:46:44;;;;;;;2.73;1.07;;;5.30;99.90;;;;;;5012149;28;20428;-81
2022/02/21 02:49:10;;;;;;;3.90;1.17;;;5.30;99.90;;;;;;5012328;28;20763;-82
2022/02/21 02:51:35;;;;;;;2.50;1.20;;;5.30;99.90;;;;;;5013729;28;20443;-82
2022/02/21 02:54:01;;;;;;;3.67;2.03;;;5.30;99.90;;;;;;5012391;28;20299;-82
2022/02/21 02:56:27;;;;;;;2.47;1.13;;;5.20;99.90;;;;;;5012068;28;20204;-82
2022/02/21 02:58:53;;;;;;;3.17;1.10;;;5.00;99.90;;;;;;5012277;28;20432;-83
2022/02/21 03:01:18;;;;;;;2.80;0.97;;;5.00;99.90;;;;;;5012253;28;20182;-83
2022/02/21 03:03:44;;;;;;;2.60;1.13;;;4.90;99.90;;;;;;5012175;28;20182;-82
2022/02/21 03:06:09;;;;;;;3.53;1.20;;;4.80;99.90;;;;;;5013215;28;20177;-82
2022/02/21 03:08:35;;;;;;;4.20;1.47;;;4.60;99.90;;;;;;5013225;28;20178;-82
2022/02/21 03:11:00;;;;;;;4.20;1.30;;;4.70;99.90;;;;;;5012253;28;20185;-82
2022/02/21 03:13:26;;;;;;;8.07;1.80;;;4.60;99.90;;;;;;5011916;28;20220;-82
2022/02/21 03:15:51;;;;;;;3.60;1.30;;;4.50;99.90;;;;;;5011806;28;20657;-82
2022/02/21 03:18:17;;;;;;;5.40;1.53;;;4.50;99.90;;;;;;5012923;28;20652;-82
2022/02/21 03:20:42;;;;;;;4.23;1.77;;;4.50;99.90;;;;;;5011914;28;20656;-82
2022/02/21 03:23:08;;;;;;;7.70;1.90;;;4.60;99.90;;;;;;5013075;28;20577;-83
2022/02/21 03:25:33;;;;;;;4.00;2.03;;;4.60;99.90;;;;;;5013048;28;20580;-82
2022/02/21 03:27:59;;;;;;;6.40;2.27;;;4.70;99.90;;;;;;5012726;28;20374;-82
2022/02/21 03:30:25;;;;;;;5.00;1.90;;;4.70;99.90;;;;;;5012844;28;20185;-83
2022/02/21 03:32:52;;;;;;;8.60;2.03;;;4.70;99.90;;;;;;5012683;28;20200;-83
2022/02/21 03:35:18;;;;;;;4.53;2.80;;;4.60;99.90;;;;;;5012801;28;20185;-82
2022/02/21 03:37:43;;;;;;;3.20;1.80;;;4.80;99.90;;;;;;5012542;28;20408;-82
2022/02/21 03:40:09;;;;;;;5.13;1.63;;;4.70;99.90;;;;;;5012803;28;20181;-82
2022/02/21 03:42:35;;;;;;;6.43;1.83;;;4.80;99.90;;;;;;5011300;28;20216;-82
2022/02/21 03:45:02;;;;;;;4.00;1.53;;;4.80;99.90;;;;;;5012521;28;20461;-83
2022/02/21 03:47:28;;;;;;;5.27;1.50;;;4.90;99.90;;;;;;5010447;28;20236;-82
2022/02/21 03:49:54;;;;;;;6.37;2.00;;;5.00;99.90;;;;;;5011452;28;20424;-82
2022/02/21 03:52:19;;;;;;;5.00;1.50;;;5.10;99.90;;;;;;5011381;28;20241;-82
2022/02/21 03:54:45;;;;;;;5.87;1.63;;;4.90;99.90;;;;;;5012655;28;20186;-82
2022/02/21 03:57:10;;;;;;;3.43;1.20;;;4.80;99.90;;;;;;5010991;28;20656;-82
2022/02/21 03:59:36;;;;;;;4.50;1.13;;;4.40;99.90;;;;;;5011252;28;20235;-82
2022/02/21 04:02:01;;;;;;;2.40;1.00;;;3.90;99.90;;;;;;5011195;28;20203;-83
2022/02/21 04:04:27;;;;;;;2.50;1.10;;;3.40;99.90;;;;;;5012372;28;20201;-82
2022/02/21 04:06:54;;;;;;;3.67;1.10;;;3.00;99.90;;;;;;5011026;28;20294;-83
2022/02/21 04:09:19;;;;;;;5.20;1.00;;;2.90;99.90;;;;;;5012328;28;20504;-83
2022/02/21 04:11:45;;;;;;;2.53;1.20;;;2.80;99.90;;;;;;5012185;28;20266;-83
2022/02/21 04:14:10;;;;;;;2.37;1.03;;;2.80;99.90;;;;;;5010958;28;20192;-83
2022/02/21 04:16:36;;;;;;;2.80;1.10;;;2.70;99.90;;;;;;5010622;28;20183;-83
2022/02/21 04:19:02;;;;;;;3.80;1.27;;;2.70;99.90;;;;;;5011009;28;20560;-83
2022/02/21 04:21:29;;;;;;;3.70;1.10;;;2.80;99.90;;;;;;5010807;28;20211;-83
2022/02/21 04:23:55;;;;;;;3.00;1.30;;;2.80;99.90;;;;;;5013309;28;20801;-83
2022/02/21 04:26:20;;;;;;;2.77;1.20;;;2.80;99.90;;;;;;5012417;28;20414;-82
2022/02/21 04:28:46;;;;;;;3.27;1.00;;;2.90;99.90;;;;;;5012846;28;20562;-82
2022/02/21 04:31:14;;;;;;;5.70;1.30;;;3.00;99.90;;;;;;5012521;28;20568;-83
2022/02/21 04:33:39;;;;;;;3.00;1.30;;;3.00;99.90;;;;;;5011164;28;20205;-83
2022/02/21 04:36:05;;;;;;;5.73;1.20;;;3.00;99.90;;;;;;5010899;28;20429;-82
2022/02/21 04:38:31;;;;;;;5.03;1.20;;;3.00;99.90;;;;;;5011111;28;20192;-83
2022/02/21 04:40:56;;;;;;;3.40;1.70;;;3.00;99.90;;;;;;5012521;28;20445;-83
2022/02/21 04:43:22;;;;;;;6.90;1.43;;;3.00;99.90;;;;;;5011240;28;20719;-82
2022/02/21 04:45:54;;;;;;;6.10;1.40;;;3.10;99.90;;;;;;5010910;28;20215;-82
2022/02/21 04:48:21;;;;;;;11.27;2.20;;;3.20;99.90;;;;;;5010723;28;20459;-83
2022/02/21 04:50:46;;;;;;;7.03;1.43;;;3.30;99.90;;;;;;5011070;28;20474;-82
2022/02/21 04:53:12;;;;;;;7.07;1.93;;;3.40;99.90;;;;;;5010913;28;20451;-83
2022/02/21 04:55:37;;;;;;;5.47;2.10;;;3.50;99.90;;;;;;5011129;28;20249;-83
2022/02/21 04:58:03;;;;;;;5.60;1.53;;;3.60;99.90;;;;;;5014192;28;20212;-82
2022/02/21 05:00:28;;;;;;;13.17;1.90;;;3.80;99.90;;;;;;5014740;28;20251;-82
2022/02/21 05:02:55;;;;;;;7.63;3.63;;;3.90;99.90;;;;;;5014655;28;20227;-83
2022/02/21 05:05:21;;;;;;;5.90;2.60;;;4.00;99.90;;;;;;5014386;28;20209;-83
2022/02/21 05:07:46;;;;;;;5.80;1.70;;;4.00;99.90;;;;;;5015400;28;20434;-83
2022/02/21 05:10:12;;;;;;;7.17;1.70;;;4.10;99.90;;;;;;5015769;28;20675;-82
2022/02/21 05:12:38;;;;;;;7.97;1.70;;;4.30;99.90;;;;;;5014228;28;20277;-82
2022/02/21 05:15:05;;;;;;;5.27;1.23;;;4.40;99.90;;;;;;5014296;28;20430;-83
2022/02/21 05:17:30;;;;;;;8.60;1.63;;;4.60;99.90;;;;;;5015326;28;20212;-82
2022/02/21 05:19:56;;;;;;;5.23;2.10;;;4.60;99.90;;;;;;5015579;28;20455;-83
2022/02/21 05:22:22;;;;;;;10.90;2.73;;;4.70;99.90;;;;;;5014054;28;20267;-82
2022/02/21 05:24:48;;;;;;;5.60;2.10;;;4.80;99.90;;;;;;5014022;28;20209;-83
2022/02/21 05:27:14;;;;;;;5.10;2.00;;;4.80;99.90;;;;;;5013701;28;20188;-82
2022/02/21 05:29:39;;;;;;;7.23;2.07;;;4.80;99.90;;;;;;5013998;28;20424;-82
2022/02/21 05:32:05;;;;;;;5.80;2.70;;;4.80;99.90;;;;;;5014086;28;20223;-82
2022/02/21 05:34:31;;;;;;;8.00;1.90;;;4.90;99.90;;;;;;5013865;28;20612;-83
2022/02/21 05:36:56;;;;;;;4.53;1.77;;;4.80;99.90;;;;;;5014740;28;20415;-83
2022/02/21 05:39:22;;;;;;;8.53;2.67;;;4.80;99.90;;;;;;5015100;28;20558;-83
2022/02/21 05:41:48;;;;;;;7.97;2.80;;;4.80;99.90;;;;;;5014900;28;20727;-83
2022/02/21 05:44:13;;;;;;;8.23;3.10;;;4.80;99.90;;;;;;5014950;28;20540;-83
2022/02/21 05:46:40;;;;;;;8.23;2.30;;;4.80;99.90;;;;;;5013253;28;20640;-83
2022/02/21 05:49:05;;;;;;;5.90;3.10;;;4.70;99.90;;;;;;5014956;28;20181;-83
2022/02/21 05:51:31;;;;;;;12.20;2.73;;;4.80;99.90;;;;;;5014747;28;20518;-83
2022/02/21 05:53:56;;;;;;;9.90;2.13;;;4.70;99.90;;;;;;5013536;28;20228;-84
2022/02/21 05:56:22;;;;;;;7.40;2.40;;;4.80;99.90;;;;;;5013325;28;20191;-82
2022/02/21 05:58:48;;;;;;;8.60;2.20;;;4.80;99.90;;;;;;5013234;28;20189;-83
2022/02/21 06:01:13;;;;;;;7.03;2.10;;;4.80;99.90;;;;;;5013270;28;20200;-83
2022/02/21 06:03:39;;;;;;;5.23;1.80;;;4.80;99.90;;;;;;5014532;28;20243;-83
2022/02/21 06:06:04;;;;;;;8.93;2.30;;;4.90;99.90;;;;;;5013193;28;20185;-83
2022/02/21 06:08:30;;;;;;;16.13;2.83;;;4.90;99.90;;;;;;5013752;28;20707;-83
2022/02/21 06:10:57;;;;;;;9.90;2.63;;;4.90;99.90;;;;;;5012927;28;20185;-84
2022/02/21 06:13:22;;;;;;;14.37;2.87;;;4.90;99.90;;;;;;5014137;28;20352;-84
2022/02/21 06:15:48;;;;;;;6.53;3.27;;;4.90;99.90;;;;;;5012919;28;20509;-83
2022/02/21 06:18:13;;;;;;;12.20;2.00;;;5.00;99.90;;;;;;5014684;28;20735;-83
2022/02/21 06:20:39;;;;;;;7.07;2.27;;;5.00;99.90;;;;;;5013556;28;20192;-83
2022/02/21 06:23:04;;;;;;;8.77;2.03;;;5.00;99.90;;;;;;5015104;28;20284;-83
2022/02/21 06:25:30;;;;;;;8.47;2.20;;;5.00;99.90;;;;;;5012947;28;20210;-84
2022/02/21 06:27:55;;;;;;;11.30;2.10;;;4.90;99.90;;;;;;5012940;28;20188;-83
2022/02/21 06:30:21;;;;;;;6.03;1.63;;;4.50;99.90;;;;;;5014287;28;20267;-83
2022/02/21 06:32:47;;;;;;;6.90;2.00;;;4.20;99.90;;;;;;5014769;28;20201;-83
2022/02/21 06:35:14;;;;;;;4.73;2.23;;;3.90;99.90;;;;;;5014886;28;20196;-83
2022/02/21 06:37:46;;;;;;;6.30;2.90;;;3.80;99.90;;;;;;5015523;28;20250;-83
2022/02/21 06:40:13;;;;;;;8.70;2.43;;;3.80;99.90;;;;;;5016944;28;20405;-83
2022/02/21 06:42:39;;;;;;;7.90;2.57;;;3.80;99.90;;;;;;5013619;28;20440;-83
2022/02/21 06:45:05;;;;;;;8.07;3.50;;;3.80;99.90;;;;;;5013862;28;20468;-83
2022/02/21 06:47:31;;;;;;;4.63;2.33;;;3.60;99.90;;;;;;5013289;28;20210;-84
2022/02/21 06:49:57;;;;;;;5.53;2.10;;;3.50;99.90;;;;;;5014025;28;20418;-83
2022/02/21 06:52:22;;;;;;;6.67;1.73;;;3.50;99.90;;;;;;5012445;28;20219;-83
2022/02/21 06:54:52;;;;;;;7.50;2.67;;;3.50;99.90;;;;;;5012485;28;20541;-83
2022/02/21 06:57:22;;;;;;;6.00;1.60;;;3.50;99.90;;;;;;5011976;28;20242;-84
2022/02/21 06:59:47;;;;;;;5.13;1.60;;;3.50;99.90;;;;;;5012355;28;20423;-84
2022/02/21 07:02:13;;;;;;;3.27;1.60;;;3.40;99.90;;;;;;5013518;28;20447;-84
2022/02/21 07:04:38;;;;;;;8.80;2.23;;;3.40;99.90;;;;;;5013530;28;20288;-83
2022/02/21 07:07:04;;;;;;;7.67;2.57;;;3.40;99.90;;;;;;5011925;28;20230;-83
2022/02/21 07:09:30;;;;;;;10.50;2.97;;;3.40;99.90;;;;;;5012106;28;20211;-84
2022/02/21 07:11:55;;;;;;;12.27;2.80;;;3.40;99.90;;;;;;5011733;28;20285;-84
2022/02/21 07:14:24;;;;;;;8.40;2.10;;;3.50;99.90;;;;;;5013829;28;20180;-84
2022/02/21 07:16:50;;;;;;;4.20;2.20;;;3.70;99.90;;;;;;5013016;28;20188;-83
2022/02/21 07:19:15;;;;;;;12.07;2.40;;;3.80;99.90;;;;;;5013571;28;20422;-83
2022/02/21 07:21:42;;;;;;;10.40;2.87;;;3.90;99.90;;;;;;5011466;28;20208;-83
2022/02/21 07:24:11;;;;;;;4.23;2.00;;;4.10;99.90;;;;;;5014308;28;20304;-83
2022/02/21 07:26:37;;;;;;;8.30;1.70;;;4.20;99.90;;;;;;5013946;28;20435;-83
2022/02/21 07:29:03;;;;;;;6.13;1.73;;;4.40;99.90;;;;;;5012221;28;20446;-83
2022/02/21 07:31:29;;;;;;;7.20;2.03;;;4.50;99.90;;;;;;5013549;28;20442;-84
2022/02/21 07:33:55;;;;;;;6.30;2.30;;;4.60;99.90;;;;;;5012524;28;20491;-84
2022/02/21 07:36:21;;;;;;;4.73;1.83;;;4.60;99.90;;;;;;5012095;28;20459;-84
2022/02/21 07:38:46;;;;;;;5.73;1.93;;;4.70;99.90;;;;;;5012215;28;20196;-84
2022/02/21 07:41:12;;;;;;;3.53;1.57;;;4.80;99.90;;;;;;5013433;28;20196;-84
2022/02/21 07:43:38;;;;;;;3.70;2.00;;;4.90;99.90;;;;;;5012873;28;20928;-83
2022/02/21 07:46:03;;;;;;;6.90;1.87;;;5.00;99.90;;;;;;5011599;28;20303;-84
2022/02/21 07:48:29;;;;;;;6.73;2.17;;;5.00;99.90;;;;;;5011568;28;20182;-84
2022/02/21 07:50:55;;;;;;;6.20;2.07;;;5.10;99.90;;;;;;5012062;28;20600;-84
2022/02/21 07:53:22;;;;;;;7.27;2.20;;;5.20;99.90;;;;;;5011451;28;20202;-84
2022/02/21 07:55:48;;;;;;;8.50;2.63;;;5.20;99.90;;;;;;5011828;28;20453;-84
2022/02/21 07:58:14;;;;;;;7.30;2.40;;;5.30;99.90;;;;;;5011628;28;20830;-84
2022/02/21 08:00:39;;;;;;;4.80;1.77;;;5.40;99.90;;;;;;5011436;28;20232;-84
2022/02/21 08:03:05;;;;;;;5.60;1.70;;;5.40;99.90;;;;;;5011420;28;20446;-84
2022/02/21 08:05:30;;;;;;;6.00;1.70;;;5.50;99.90;;;;;;5011301;28;20218;-83
2022/02/21 08:07:56;;;;;;;6.90;1.93;;;5.50;99.90;;;;;;5011254;28;20179;-84
2022/02/21 08:10:22;;;;;;;7.77;1.80;;;5.50;99.90;;;;;;5011076;28;20253;-84
2022/02/21 08:12:47;;;;;;;5.57;1.73;;;5.50;99.90;;;;;;5045358;22;20237;-79
2022/02/21 08:15:13;;;;;;;3.90;2.00;;;5.50;99.90;;;;;;5017869;28;20213;-79
2022/02/21 08:17:40;;;;;;;4.43;2.13;;;5.50;99.90;;;;;;5019607;28;20207;-78
2022/02/21 08:20:06;;;;;;;11.63;2.47;;;5.50;99.90;;;;;;5017573;28;20707;-79
2022/02/21 08:22:32;;;;;;;4.67;1.57;;;5.40;99.90;;;;;;5018649;28;20438;-80
2022/02/21 08:24:58;;;;;;;5.63;2.13;;;5.50;99.90;;;;;;5018126;28;20471;-79
2022/02/21 08:27:23;;;;;;;5.20;1.47;;;5.60;99.90;;;;;;5016381;28;20214;-80
2022/02/21 08:29:49;;;;;;;6.57;1.63;;;5.70;99.90;;;;;;5020099;28;20708;-80
2022/02/21 08:32:17;;;;;;;5.30;2.03;;;5.80;99.90;;;;;;5017472;28;20608;-80
2022/02/21 08:34:43;;;;;;;6.13;2.03;;;5.80;99.90;;;;;;5024773;28;20275;-80
2022/02/21 08:37:09;;;;;;;5.07;1.87;;;5.80;99.90;;;;;;5023795;28;20468;-80
2022/02/21 08:39:35;;;;;;;5.10;1.70;;;5.80;99.90;;;;;;5018218;28;20179;-79
2022/02/21 08:42:00;;;;;;;7.63;2.30;;;5.80;99.90;;;;;;5013358;28;20190;-79
2022/02/21 08:44:27;;;;;;;5.07;2.03;;;5.80;99.90;;;;;;5020405;28;20476;-79
2022/02/21 08:46:53;;;;;;;7.53;2.00;;;5.80;99.90;;;;;;5020310;28;20807;-79
2022/02/21 08:49:20;;;;;;;8.00;2.13;;;5.80;99.90;;;;;;5021453;28;20453;-79
2022/02/21 08:51:46;;;;;;;4.67;2.00;;;5.80;99.90;;;;;;5039321;28;20424;-80
2022/02/21 08:54:12;;;;;;;3.43;1.30;;;5.90;99.90;;;;;;5022246;28;20435;-79
2022/02/21 08:56:37;;;;;;;8.00;2.03;;;6.00;99.90;;;;;;5017962;28;20214;-79
2022/02/21 08:59:04;;;;;;;8.00;2.00;;;6.00;99.90;;;;;;5020564;28;20188;-80
2022/02/21 09:01:29;;;;;;;7.53;1.60;;;6.10;99.90;;;;;;5019997;28;20267;-79
2022/02/21 09:03:55;;;;;;;5.00;2.30;;;6.20;99.90;;;;;;5019811;28;20800;-80
2022/02/21 09:06:21;;;;;;;7.87;2.47;;;6.20;99.90;;;;;;5019874;28;20244;-79
2022/02/21 09:08:47;;;;;;;6.80;2.67;;;6.30;99.90;;;;;;5019221;28;20180;-79
2022/02/21 09:11:13;;;;;;;12.00;1.80;;;6.40;99.90;;;;;;5019578;28;20466;-79
2022/02/21 09:13:39;;;;;;;4.37;1.43;;;6.50;99.90;;;;;;5019414;28;20532;-79
2022/02/21 09:16:05;;;;;;;3.90;1.03;;;6.50;99.90;;;;;;5020032;28;20271;-79
2022/02/21 09:18:31;;;;;;;5.30;1.87;;;6.60;99.90;;;;;;5018538;28;20202;-79
2022/02/21 09:20:59;;;;;;;5.93;2.00;;;6.70;99.90;;;;;;5019250;28;20498;-80
2022/02/21 09:23:24;;;;;;;6.63;1.53;;;6.80;99.90;;;;;;5018675;28;20224;-79
2022/02/21 09:25:50;;;;;;;5.33;1.93;;;6.80;99.90;;;;;;5018297;28;20482;-79
2022/02/21 09:28:19;;;;;;;4.73;2.17;;;6.90;99.90;;;;;;5018788;28;20215;-80
2022/02/21 09:30:45;;;;;;;12.30;2.27;;;7.00;99.90;;;;;;5018777;28;20188;-79
2022/02/21 09:33:10;;;;;;;9.50;1.70;;;7.00;99.90;;;;;;5019116;28;20425;-79
2022/02/21 09:35:36;;;;;;;6.73;2.10;;;7.00;99.90;;;;;;5019610;28;20557;-80
2022/02/21 09:38:02;;;;;;;6.23;1.50;;;7.20;99.90;;;;;;5019506;28;20544;-79
2022/02/21 09:40:29;;;;;;;7.57;1.60;;;7.40;99.90;;;;;;5017671;28;20717;-79
2022/02/21 09:42:59;;;;;;;6.27;1.80;;;7.60;99.90;;;;;;5018391;28;20423;-80
2022/02/21 09:45:25;;;;;;;3.63;1.60;;;7.70;99.90;;;;;;5017166;28;20511;-79
2022/02/21 09:47:52;;;;;;;10.53;2.00;;;8.00;99.90;;;;;;5018738;28;20976;-79
2022/02/21 09:50:17;;;;;;;4.53;1.60;;;8.20;99.90;;;;;;5018228;28;20570;-80
2022/02/21 09:52:43;;;;;;;6.10;2.00;;;8.20;99.90;;;;;;5017527;28;20462;-78
2022/02/21 09:55:09;;;;;;;7.00;1.70;;;8.10;99.90;;;;;;5017848;28;20906;-79
2022/02/21 09:57:35;;;;;;;5.50;1.83;;;7.90;99.90;;;;;;5017840;28;20956;-79
2022/02/21 10:00:02;;;;;;;6.77;2.03;;;7.90;99.90;;;;;;5018594;28;20197;-79
2022/02/21 10:02:30;;;;;;;8.87;2.20;;;7.90;99.90;;;;;;5017331;28;20249;-79
2022/02/21 10:05:16;;;;;;;6.20;1.73;;;8.10;99.90;;;;;;5018199;28;20531;-79
2022/02/21 10:07:44;;;;;;;7.90;2.57;;;8.10;99.90;;;;;;5017747;28;20494;-79
2022/02/21 10:10:13;;;;;;;5.07;1.90;;;8.20;99.90;;;;;;5017870;28;20439;-79
2022/02/21 10:12:53;;;;;;;6.30;1.97;;;8.30;99.90;;;;;;5017083;28;20447;-79
2022/02/21 10:15:24;;;;;;;6.90;2.20;;;8.20;99.90;;;;;;5017578;28;20448;-79
2022/02/21 10:18:07;;;;;;;4.20;1.60;;;8.30;99.90;;;;;;5017821;28;20421;-79
2022/02/21 10:20:34;;;;;;;11.53;2.20;;;8.20;99.90;;;;;;5018645;28;20571;-79
2022/02/21 10:23:01;;;;;;;5.80;1.77;;;8.40;99.90;;;;;;5018470;28;20440;-79
2022/02/21 10:25:27;;;;;;;7.63;2.10;;;8.60;99.90;;;;;;5018209;28;20464;-80
2022/02/21 10:27:54;;;;;;;6.13;1.90;;;8.80;99.90;;;;;;5017697;28;20416;-79
2022/02/21 10:30:19;;;;;;;10.60;2.70;;;8.80;99.90;;;;;;5017840;28;20466;-79
2022/02/21 10:32:47;;;;;;;5.97;3.03;;;8.70;99.90;;;;;;5016971;28;20896;-79
2022/02/21 10:35:27;;;;;;;7.40;2.10;;;8.70;99.90;;;;;;5017731;28;20252;-79
2022/02/21 10:37:59;;;;;;;5.30;1.80;;;8.30;99.90;;;;;;5018955;28;20535;-80
2022/02/21 10:40:38;;;;;;;7.57;2.97;;;7.80;99.90;;;;;;5019514;28;20432;-80
2022/02/21 10:43:17;;;;;;;8.23;2.50;;;7.40;99.90;;;;;;5019822;28;20428;-79
2022/02/21 10:45:44;;;;;;;9.87;2.00;;;7.00;99.90;;;;;;5017669;28;22186;-79
2022/02/21 10:48:20;;;;;;;5.30;2.28;;;6.70;99.90;;;;;;5016685;28;20415;-79
2022/02/21 10:50:58;;;;;;;6.93;2.10;;;6.50;99.90;;;;;;5015734;28;20643;-80
2022/02/21 10:53:35;;;;;;;6.57;2.47;;;6.30;99.90;;;;;;5014909;28;20423;-80
2022/02/21 10:56:01;;;;;;;4.87;1.77;;;6.10;99.90;;;;;;5015215;28;20946;-79
2022/02/21 10:58:27;;;;;;;8.57;2.10;;;6.00;99.90;;;;;;5015787;28;20421;-80
2022/02/21 11:00:55;;;;;;;7.60;1.87;;;6.00;99.90;;;;;;5014897;28;20436;-80
2022/02/21 11:03:25;;;;;;;4.20;1.60;;;5.90;99.90;;;;;;5014591;28;20976;-80
2022/02/21 11:05:53;;;;;;;6.23;1.97;;;5.80;99.90;;;;;;5014297;28;20473;-80
2022/02/21 11:08:20;;;;;;;7.77;1.90;;;5.80;99.90;;;;;;5014807;28;20421;-79
2022/02/21 11:10:55;;;;;;;7.10;2.37;;;5.90;99.90;;;;;;5015044;28;20430;-80
2022/02/21 11:13:21;;;;;;;2.80;1.40;;;5.80;99.90;;;;;;5014807;28;20499;-81
2022/02/21 11:15:52;;;;;;;7.67;1.80;;;5.90;99.90;;;;;;5014014;28;20484;-80
2022/02/21 11:18:19;;;;;;;8.40;2.60;;;6.00;99.90;;;;;;5014419;28;20321;-79
2022/02/21 11:20:45;;;;;;;6.13;2.27;;;6.30;99.90;;;;;;5013959;28;20435;-81
2022/02/21 11:23:11;;;;;;;7.13;1.80;;;6.50;99.90;;;;;;5014522;28;20796;-79
2022/02/21 11:25:45;;;;;;;7.97;1.80;;;6.60;99.90;;;;;;5014175;28;20459;-80
2022/02/21 11:28:24;;;;;;;8.97;2.73;;;6.60;99.90;;;;;;5014711;28;20418;-79
2022/02/21 11:30:54;;;;;;;5.20;1.97;;;6.50;99.90;;;;;;5007783;28;20796;-79
2022/02/21 11:33:20;;;;;;;11.17;2.40;;;6.40;99.90;;;;;;5016215;28;20449;-80
2022/02/21 11:36:08;;;;;;;7.10;2.10;;;6.20;99.90;;;;;;5016402;28;20952;-80
2022/02/21 11:38:35;;;;;;;6.33;2.13;;;5.90;99.90;;;;;;5017650;28;20507;-80
2022/02/21 11:41:09;;;;;;;6.57;2.40;;;5.70;99.90;;;;;;5017641;28;20425;-81
2022/02/21 11:43:41;;;;;;;6.77;2.00;;;5.40;99.90;;;;;;5017240;28;20480;-80
2022/02/21 11:46:25;;;;;;;7.60;2.27;;;5.40;99.90;;;;;;5017793;28;20522;-79
2022/02/21 11:48:55;;;;;;;6.13;2.43;;;5.30;99.90;;;;;;5017503;28;20801;-79
2022/02/21 11:51:41;;;;;;;5.07;2.10;;;5.20;99.90;;;;;;5015061;28;20427;-78
2022/02/21 11:54:13;;;;;;;9.20;2.90;;;5.20;99.90;;;;;;5011772;28;20443;-79
2022/02/21 11:56:48;;;;;;;7.60;2.00;;;5.10;99.90;;;;;;5013265;28;20970;-77
2022/02/21 11:59:23;;;;;;;7.50;3.10;;;5.10;99.90;;;;;;5015427;28;20478;-78
2022/02/21 12:02:10;;;;;;;6.33;1.80;;;5.20;99.90;;;;;;5014545;28;20443;-77
2022/02/21 12:04:56;;;;;;;5.37;1.80;;;5.20;99.90;;;;;;5015116;28;20472;-78
2022/02/21 12:07:35;;;;;;;4.87;2.10;;;5.10;99.90;;;;;;5014533;28;20445;-78
2022/02/21 12:10:21;;;;;;;4.97;1.77;;;5.20;99.90;;;;;;5012067;28;20433;-78
2022/02/21 12:12:52;;;;;;;6.40;1.63;;;5.10;99.90;;;;;;5011480;28;20875;-78
2022/02/21 12:15:19;;;;;;;4.97;1.70;;;5.20;99.90;;;;;;5017085;28;20428;-78
2022/02/21 12:17:45;;;;;;;3.60;1.63;;;5.20;99.90;;;;;;5017797;28;20445;-78
2022/02/21 12:20:32;;;;;;;7.83;2.27;;;5.30;99.90;;;;;;5019276;28;20530;-78
2022/02/21 12:23:15;;;;;;;8.10;1.60;;;5.40;99.90;;;;;;5016846;28;20441;-79
2022/02/21 12:26:02;;;;;;;7.73;2.17;;;5.50;99.90;;;;;;5016399;28;21051;-80
2022/02/21 12:28:32;;;;;;;7.20;2.10;;;5.50;99.90;;;;;;5015997;28;20468;-79
2022/02/21 12:30:59;;;;;;;5.53;2.07;;;5.50;99.90;;;;;;5015794;28;20425;-78
2022/02/21 12:33:29;;;;;;;6.17;1.90;;;5.60;99.90;;;;;;5016442;28;20422;-78
2022/02/21 12:36:07;;;;;;;9.07;1.90;;;5.70;99.90;;;;;;5017661;28;20436;-78
2022/02/21 12:38:37;;;;;;;4.20;1.53;;;5.70;99.90;;;;;;5019156;28;20474;-78
2022/02/21 12:41:08;;;;;;;5.90;1.90;;;5.70;99.90;;;;;;5017275;28;20413;-78
2022/02/21 12:43:58;;;;;;;5.20;1.90;;;5.80;99.90;;;;;;5019138;28;20434;-78
2022/02/21 12:46:38;;;;;;;6.73;2.27;;;5.90;99.90;;;;;;5017951;28;20449;-78
2022/02/21 12:49:07;;;;;;;5.20;2.10;;;6.10;99.90;;;;;;5017610;28;20466;-79
2022/02/21 12:51:38;;;;;;;3.67;1.80;;;6.20;99.90;;;;;;5017867;28;20820;-78
2022/02/21 12:54:11;;;;;;;4.10;2.03;;;6.30;99.90;;;;;;5017660;28;20439;-78
2022/02/21 12:56:50;;;;;;;3.40;1.50;;;6.40;99.90;;;;;;5018180;28;20466;-80
2022/02/21 12:59:24;;;;;;;10.03;2.03;;;6.60;99.90;;;;;;5021256;28;21030;-78